Weather at Streaky Bay Airport

Public forecast

Using degrees Celsius for public forecast. Weather courtesy of forecast.io.

Closest aviation weather report (METAR) to Streaky Bay Airport

Closest report is Ceduna Airport, 51.6 nm (95.6 km) NW. Retrieved 2020/10/26 08:00 UTC (46 minutes ago):

YCDU 260800Z AUTO 18017KT 9999 // NCD 16/08 Q1019

Closest aviation forecast (TAF) to Streaky Bay Airport

Forecast is more than 12 hours old.

Closest forecast is Whyalla Airport, 162.8 nm (301.6 km) E. Retrieved 2018/11/15 18:03 UTC (2 years ago):

TAF YWHA 151701Z 1518/1608 VRB05KT CAVOK FM152300 18012KT CAVOK FM160200 18018KT CAVOK